sensor_id;sensor_type;location;lat;lon;timestamp;temperature;humidity
44843;DHT22;31884;52.538;13.820;2023-04-28T00:02:14;1.20;92.20
44843;DHT22;31884;52.538;13.820;2023-04-28T00:04:40;1.20;93.00
44843;DHT22;31884;52.538;13.820;2023-04-28T00:07:06;1.20;92.90
44843;DHT22;31884;52.538;13.820;2023-04-28T00:09:32;1.20;93.70
44843;DHT22;31884;52.538;13.820;2023-04-28T00:11:57;1.20;90.90
44843;DHT22;31884;52.538;13.820;2023-04-28T00:14:24;1.10;92.60
44843;DHT22;31884;52.538;13.820;2023-04-28T00:16:49;1.10;91.40
44843;DHT22;31884;52.538;13.820;2023-04-28T00:19:15;1.10;91.50
44843;DHT22;31884;52.538;13.820;2023-04-28T00:21:40;1.10;92.10
44843;DHT22;31884;52.538;13.820;2023-04-28T00:24:06;1.00;91.70
44843;DHT22;31884;52.538;13.820;2023-04-28T00:26:32;1.00;91.20
44843;DHT22;31884;52.538;13.820;2023-04-28T00:28:57;1.00;92.50
44843;DHT22;31884;52.538;13.820;2023-04-28T00:31:23;0.90;92.10
44843;DHT22;31884;52.538;13.820;2023-04-28T00:33:48;0.90;92.20
44843;DHT22;31884;52.538;13.820;2023-04-28T00:36:14;0.90;92.00
44843;DHT22;31884;52.538;13.820;2023-04-28T00:38:39;0.80;92.10
44843;DHT22;31884;52.538;13.820;2023-04-28T00:41:05;0.80;92.60
44843;DHT22;31884;52.538;13.820;2023-04-28T00:43:31;0.80;93.10
44843;DHT22;31884;52.538;13.820;2023-04-28T00:46:07;0.80;92.60
44843;DHT22;31884;52.538;13.820;2023-04-28T00:48:33;0.80;91.50
44843;DHT22;31884;52.538;13.820;2023-04-28T00:50:58;0.70;91.00
44843;DHT22;31884;52.538;13.820;2023-04-28T00:53:24;0.70;90.30
44843;DHT22;31884;52.538;13.820;2023-04-28T00:55:50;0.70;93.30
44843;DHT22;31884;52.538;13.820;2023-04-28T00:58:18;0.70;94.30
44843;DHT22;31884;52.538;13.820;2023-04-28T01:00:43;0.60;95.20
44843;DHT22;31884;52.538;13.820;2023-04-28T01:03:09;0.60;95.20
44843;DHT22;31884;52.538;13.820;2023-04-28T01:05:35;0.60;93.80
44843;DHT22;31884;52.538;13.820;2023-04-28T01:08:01;0.50;93.00
44843;DHT22;31884;52.538;13.820;2023-04-28T01:10:27;0.50;93.90
44843;DHT22;31884;52.538;13.820;2023-04-28T01:12:52;0.50;95.60
44843;DHT22;31884;52.538;13.820;2023-04-28T01:15:19;0.50;97.80
44843;DHT22;31884;52.538;13.820;2023-04-28T01:17:45;0.50;98.20
44843;DHT22;31884;52.538;13.820;2023-04-28T01:20:12;0.40;97.30
44843;DHT22;31884;52.538;13.820;2023-04-28T01:22:37;0.40;97.50
44843;DHT22;31884;52.538;13.820;2023-04-28T01:25:03;0.40;96.80
44843;DHT22;31884;52.538;13.820;2023-04-28T01:27:28;0.40;95.80
44843;DHT22;31884;52.538;13.820;2023-04-28T01:29:54;0.40;96.50
44843;DHT22;31884;52.538;13.820;2023-04-28T01:32:20;0.40;96.30
44843;DHT22;31884;52.538;13.820;2023-04-28T01:34:45;0.40;99.90
44843;DHT22;31884;52.538;13.820;2023-04-28T01:37:11;0.40;99.90
44843;DHT22;31884;52.538;13.820;2023-04-28T01:39:37;0.40;99.90
44843;DHT22;31884;52.538;13.820;2023-04-28T01:42:02;0.40;99.90
44843;DHT22;31884;52.538;13.820;2023-04-28T01:44:28;0.30;99.90
44843;DHT22;31884;52.538;13.820;2023-04-28T01:46:53;0.30;99.90
44843;DHT22;31884;52.538;13.820;2023-04-28T01:49:19;0.30;99.90
44843;DHT22;31884;52.538;13.820;2023-04-28T01:51:44;0.30;99.90
44843;DHT22;31884;52.538;13.820;2023-04-28T01:54:10;0.30;99.90
44843;DHT22;31884;52.538;13.820;2023-04-28T01:56:35;0.30;99.90
44843;DHT22;31884;52.538;13.820;2023-04-28T01:59:01;0.30;99.90
44843;DHT22;31884;52.538;13.820;2023-04-28T02:01:26;0.30;99.90
44843;DHT22;31884;52.538;13.820;2023-04-28T02:03:52;0.20;99.90
44843;DHT22;31884;52.538;13.820;2023-04-28T02:06:19;0.20;99.90
44843;DHT22;31884;52.538;13.820;2023-04-28T02:08:44;0.20;99.90
44843;DHT22;31884;52.538;13.820;2023-04-28T02:11:10;0.20;99.90
44843;DHT22;31884;52.538;13.820;2023-04-28T02:13:35;0.20;99.90
44843;DHT22;31884;52.538;13.820;2023-04-28T02:16:01;0.20;99.90
44843;DHT22;31884;52.538;13.820;2023-04-28T02:18:27;0.20;99.90
44843;DHT22;31884;52.538;13.820;2023-04-28T02:20:52;0.20;99.90
44843;DHT22;31884;52.538;13.820;2023-04-28T02:23:18;0.20;99.90
44843;DHT22;31884;52.538;13.820;2023-04-28T02:25:43;0.20;99.90
44843;DHT22;31884;52.538;13.820;2023-04-28T02:28:09;0.10;99.90
44843;DHT22;31884;52.538;13.820;2023-04-28T02:30:34;0.10;99.90
44843;DHT22;31884;52.538;13.820;2023-04-28T02:33:00;0.20;99.90
44843;DHT22;31884;52.538;13.820;2023-04-28T02:35:25;0.20;99.90
44843;DHT22;31884;52.538;13.820;2023-04-28T02:37:51;0.20;99.90
44843;DHT22;31884;52.538;13.820;2023-04-28T02:40:17;0.20;99.20
44843;DHT22;31884;52.538;13.820;2023-04-28T02:42:42;0.10;98.50
44843;DHT22;31884;52.538;13.820;2023-04-28T02:45:08;0.10;99.30
44843;DHT22;31884;52.538;13.820;2023-04-28T02:47:34;0.10;99.90
44843;DHT22;31884;52.538;13.820;2023-04-28T02:49:59;0.10;99.90
44843;DHT22;31884;52.538;13.820;2023-04-28T02:52:25;0.20;99.90
44843;DHT22;31884;52.538;13.820;2023-04-28T02:54:50;0.10;99.90
44843;DHT22;31884;52.538;13.820;2023-04-28T02:57:19;0.10;99.90
44843;DHT22;31884;52.538;13.820;2023-04-28T02:59:44;0.10;99.90
44843;DHT22;31884;52.538;13.820;2023-04-28T03:02:10;0.10;99.90
44843;DHT22;31884;52.538;13.820;2023-04-28T03:04:36;0.10;99.90
44843;DHT22;31884;52.538;13.820;2023-04-28T03:07:02;0.10;99.90
44843;DHT22;31884;52.538;13.820;2023-04-28T03:09:28;0.10;99.90
44843;DHT22;31884;52.538;13.820;2023-04-28T03:11:53;0.10;99.90
44843;DHT22;31884;52.538;13.820;2023-04-28T03:14:18;0.00;99.90
44843;DHT22;31884;52.538;13.820;2023-04-28T03:16:44;0.00;99.90
44843;DHT22;31884;52.538;13.820;2023-04-28T03:19:10;0.00;99.90
44843;DHT22;31884;52.538;13.820;2023-04-28T03:21:35;0.00;99.90
44843;DHT22;31884;52.538;13.820;2023-04-28T03:24:00;0.00;99.90
44843;DHT22;31884;52.538;13.820;2023-04-28T03:26:26;-0.10;99.90
44843;DHT22;31884;52.538;13.820;2023-04-28T03:28:51;0.00;99.90
44843;DHT22;31884;52.538;13.820;2023-04-28T03:31:17;0.00;99.90
44843;DHT22;31884;52.538;13.820;2023-04-28T03:33:42;0.00;99.90
44843;DHT22;31884;52.538;13.820;2023-04-28T03:36:09;0.00;99.90
44843;DHT22;31884;52.538;13.820;2023-04-28T03:38:35;0.10;99.90
44843;DHT22;31884;52.538;13.820;2023-04-28T03:41:00;0.10;99.90
44843;DHT22;31884;52.538;13.820;2023-04-28T03:43:26;0.20;99.90
44843;DHT22;31884;52.538;13.820;2023-04-28T03:45:52;0.20;99.90
44843;DHT22;31884;52.538;13.820;2023-04-28T03:48:17;0.20;99.90
44843;DHT22;31884;52.538;13.820;2023-04-28T03:50:43;0.30;99.90
44843;DHT22;31884;52.538;13.820;2023-04-28T03:53:10;0.30;99.90
44843;DHT22;31884;52.538;13.820;2023-04-28T03:55:35;0.40;99.90
44843;DHT22;31884;52.538;13.820;2023-04-28T03:58:01;0.50;99.90
44843;DHT22;31884;52.538;13.820;2023-04-28T04:00:27;0.50;99.90
44843;DHT22;31884;52.538;13.820;2023-04-28T04:02:52;0.60;99.90
44843;DHT22;31884;52.538;13.820;2023-04-28T04:05:18;0.70;99.90
44843;DHT22;31884;52.538;13.820;2023-04-28T04:07:43;0.70;99.90
44843;DHT22;31884;52.538;13.820;2023-04-28T04:10:09;0.80;99.90
44843;DHT22;31884;52.538;13.820;2023-04-28T04:12:34;0.80;99.90
44843;DHT22;31884;52.538;13.820;2023-04-28T04:15:00;0.90;99.90
44843;DHT22;31884;52.538;13.820;2023-04-28T04:17:25;0.90;99.90
44843;DHT22;31884;52.538;13.820;2023-04-28T04:19:51;1.00;99.90
44843;DHT22;31884;52.538;13.820;2023-04-28T04:22:16;1.10;99.90
44843;DHT22;31884;52.538;13.820;2023-04-28T04:24:42;1.10;99.90
44843;DHT22;31884;52.538;13.820;2023-04-28T04:27:07;1.30;99.90
44843;DHT22;31884;52.538;13.820;2023-04-28T04:29:33;1.30;99.90
44843;DHT22;31884;52.538;13.820;2023-04-28T04:31:58;1.30;99.90
44843;DHT22;31884;52.538;13.820;2023-04-28T04:34:24;1.40;99.90
44843;DHT22;31884;52.538;13.820;2023-04-28T04:36:49;1.50;99.90
44843;DHT22;31884;52.538;13.820;2023-04-28T04:39:15;1.60;99.90
44843;DHT22;31884;52.538;13.820;2023-04-28T04:41:40;2.00;99.90
44843;DHT22;31884;52.538;13.820;2023-04-28T04:44:06;3.20;99.90
44843;DHT22;31884;52.538;13.820;2023-04-28T04:46:32;4.30;98.20
44843;DHT22;31884;52.538;13.820;2023-04-28T04:48:57;5.40;90.70
44843;DHT22;31884;52.538;13.820;2023-04-28T04:51:23;6.50;83.90
44843;DHT22;31884;52.538;13.820;2023-04-28T04:53:48;7.50;78.50
44843;DHT22;31884;52.538;13.820;2023-04-28T04:56:14;8.40;72.00
44843;DHT22;31884;52.538;13.820;2023-04-28T04:58:42;9.50;66.80
44843;DHT22;31884;52.538;13.820;2023-04-28T05:01:08;10.40;59.10
44843;DHT22;31884;52.538;13.820;2023-04-28T05:03:34;11.20;57.40
44843;DHT22;31884;52.538;13.820;2023-04-28T05:06:00;12.00;48.40
44843;DHT22;31884;52.538;13.820;2023-04-28T05:08:27;12.60;36.20
44843;DHT22;31884;52.538;13.820;2023-04-28T05:10:52;13.30;41.30
44843;DHT22;31884;52.538;13.820;2023-04-28T05:13:18;13.90;39.70
44843;DHT22;31884;52.538;13.820;2023-04-28T05:15:43;14.50;27.50
44843;DHT22;31884;52.538;13.820;2023-04-28T05:18:09;15.00;32.20
44843;DHT22;31884;52.538;13.820;2023-04-28T05:20:35;15.50;28.30
44843;DHT22;31884;52.538;13.820;2023-04-28T05:23:01;16.00;26.90
44843;DHT22;31884;52.538;13.820;2023-04-28T05:25:27;16.20;23.70
44843;DHT22;31884;52.538;13.820;2023-04-28T05:27:52;16.40;21.30
44843;DHT22;31884;52.538;13.820;2023-04-28T05:30:18;16.80;21.40
44843;DHT22;31884;52.538;13.820;2023-04-28T05:32:43;17.40;20.60
44843;DHT22;31884;52.538;13.820;2023-04-28T05:35:09;18.20;18.90
44843;DHT22;31884;52.538;13.820;2023-04-28T05:37:34;18.70;17.80
44843;DHT22;31884;52.538;13.820;2023-04-28T05:40:03;19.10;9.90
44843;DHT22;31884;52.538;13.820;2023-04-28T05:42:28;19.20;13.60
44843;DHT22;31884;52.538;13.820;2023-04-28T05:44:54;19.80;12.00
44843;DHT22;31884;52.538;13.820;2023-04-28T05:47:20;19.70;7.60
44843;DHT22;31884;52.538;13.820;2023-04-28T05:49:45;19.70;9.80
44843;DHT22;31884;52.538;13.820;2023-04-28T05:52:11;19.70;5.60
44843;DHT22;31884;52.538;13.820;2023-04-28T05:54:36;19.60;7.30
44843;DHT22;31884;52.538;13.820;2023-04-28T05:57:02;19.90;7.90
44843;DHT22;31884;52.538;13.820;2023-04-28T05:59:27;19.90;7.90
44843;DHT22;31884;52.538;13.820;2023-04-28T06:01:54;20.20;5.30
44843;DHT22;31884;52.538;13.820;2023-04-28T06:04:20;20.30;7.20
44843;DHT22;31884;52.538;13.820;2023-04-28T06:06:45;20.60;2.80
44843;DHT22;31884;52.538;13.820;2023-04-28T06:09:11;20.20;5.90
44843;DHT22;31884;52.538;13.820;2023-04-28T06:11:36;20.60;3.50
44843;DHT22;31884;52.538;13.820;2023-04-28T06:14:02;20.80;2.00
44843;DHT22;31884;52.538;13.820;2023-04-28T06:16:28;21.50;3.60
44843;DHT22;31884;52.538;13.820;2023-04-28T06:18:53;21.70;1.00
44843;DHT22;31884;52.538;13.820;2023-04-28T06:21:19;21.40;1.00
44843;DHT22;31884;52.538;13.820;2023-04-28T06:23:45;21.50;3.00
44843;DHT22;31884;52.538;13.820;2023-04-28T06:26:11;22.00;2.20
44843;DHT22;31884;52.538;13.820;2023-04-28T06:28:37;21.70;1.00
44843;DHT22;31884;52.538;13.820;2023-04-28T06:31:02;20.60;1.00
44843;DHT22;31884;52.538;13.820;2023-04-28T06:33:28;20.10;1.40
44843;DHT22;31884;52.538;13.820;2023-04-28T06:35:53;20.10;2.10
44843;DHT22;31884;52.538;13.820;2023-04-28T06:38:19;19.90;1.60
44843;DHT22;31884;52.538;13.820;2023-04-28T06:40:45;19.90;1.40
44843;DHT22;31884;52.538;13.820;2023-04-28T06:43:10;20.10;1.60
44843;DHT22;31884;52.538;13.820;2023-04-28T06:45:37;20.80;2.40
44843;DHT22;31884;52.538;13.820;2023-04-28T06:48:03;21.40;1.00
44843;DHT22;31884;52.538;13.820;2023-04-28T06:50:28;21.90;1.10
44843;DHT22;31884;52.538;13.820;2023-04-28T06:52:54;21.40;1.00
44843;DHT22;31884;52.538;13.820;2023-04-28T06:55:19;20.70;1.00
44843;DHT22;31884;52.538;13.820;2023-04-28T06:57:45;19.70;1.10
44843;DHT22;31884;52.538;13.820;2023-04-28T07:00:11;19.50;2.00
44843;DHT22;31884;52.538;13.820;2023-04-28T07:02:37;20.70;1.20
44843;DHT22;31884;52.538;13.820;2023-04-28T07:05:03;21.60;1.00
44843;DHT22;31884;52.538;13.820;2023-04-28T07:07:29;22.50;1.00
44843;DHT22;31884;52.538;13.820;2023-04-28T07:09:55;22.90;1.00
44843;DHT22;31884;52.538;13.820;2023-04-28T07:12:21;21.80;1.00
44843;DHT22;31884;52.538;13.820;2023-04-28T07:14:47;21.20;1.00
44843;DHT22;31884;52.538;13.820;2023-04-28T07:17:12;20.60;1.00
44843;DHT22;31884;52.538;13.820;2023-04-28T07:19:38;20.50;1.00
44843;DHT22;31884;52.538;13.820;2023-04-28T07:22:03;20.70;1.00
44843;DHT22;31884;52.538;13.820;2023-04-28T07:24:29;21.10;1.00
44843;DHT22;31884;52.538;13.820;2023-04-28T07:26:55;21.90;1.00
44843;DHT22;31884;52.538;13.820;2023-04-28T07:29:21;21.40;1.00
44843;DHT22;31884;52.538;13.820;2023-04-28T07:31:46;21.70;1.00
44843;DHT22;31884;52.538;13.820;2023-04-28T07:34:12;21.60;1.00
44843;DHT22;31884;52.538;13.820;2023-04-28T07:36:37;21.00;1.00
44843;DHT22;31884;52.538;13.820;2023-04-28T07:39:03;21.50;1.00
44843;DHT22;31884;52.538;13.820;2023-04-28T07:41:29;22.10;1.00
44843;DHT22;31884;52.538;13.820;2023-04-28T07:43:54;22.40;1.00
44843;DHT22;31884;52.538;13.820;2023-04-28T07:46:20;21.80;1.00
44843;DHT22;31884;52.538;13.820;2023-04-28T07:48:45;21.20;1.00
44843;DHT22;31884;52.538;13.820;2023-04-28T07:51:11;20.70;1.00
44843;DHT22;31884;52.538;13.820;2023-04-28T07:53:36;21.10;1.00
44843;DHT22;31884;52.538;13.820;2023-04-28T07:56:02;21.20;1.00
44843;DHT22;31884;52.538;13.820;2023-04-28T07:58:27;20.80;1.00
44843;DHT22;31884;52.538;13.820;2023-04-28T08:00:53;19.60;1.00
44843;DHT22;31884;52.538;13.820;2023-04-28T08:03:18;19.20;1.00
44843;DHT22;31884;52.538;13.820;2023-04-28T08:05:44;18.50;1.00
44843;DHT22;31884;52.538;13.820;2023-04-28T08:08:10;18.50;1.00
44843;DHT22;31884;52.538;13.820;2023-04-28T08:10:36;18.30;1.00
44843;DHT22;31884;52.538;13.820;2023-04-28T08:13:02;18.20;1.00
44843;DHT22;31884;52.538;13.820;2023-04-28T08:15:28;17.80;1.10
44843;DHT22;31884;52.538;13.820;2023-04-28T08:17:53;17.50;1.70
44843;DHT22;31884;52.538;13.820;2023-04-28T08:20:19;17.00;1.80
44843;DHT22;31884;52.538;13.820;2023-04-28T08:22:45;17.50;2.60
44843;DHT22;31884;52.538;13.820;2023-04-28T08:25:10;17.30;1.90
44843;DHT22;31884;52.538;13.820;2023-04-28T08:27:36;16.90;2.50
44843;DHT22;31884;52.538;13.820;2023-04-28T08:30:07;16.40;3.20
44843;DHT22;31884;52.538;13.820;2023-04-28T08:32:33;16.50;3.70
44843;DHT22;31884;52.538;13.820;2023-04-28T08:34:59;16.60;4.30
44843;DHT22;31884;52.538;13.820;2023-04-28T08:37:25;16.80;3.60
44843;DHT22;31884;52.538;13.820;2023-04-28T08:39:51;16.90;3.40
44843;DHT22;31884;52.538;13.820;2023-04-28T08:42:25;16.90;3.40
44843;DHT22;31884;52.538;13.820;2023-04-28T08:44:50;17.40;3.50
44843;DHT22;31884;52.538;13.820;2023-04-28T08:47:23;17.30;3.50
44843;DHT22;31884;52.538;13.820;2023-04-28T08:49:54;17.80;3.40
44843;DHT22;31884;52.538;13.820;2023-04-28T08:52:24;17.70;3.50
44843;DHT22;31884;52.538;13.820;2023-04-28T08:54:50;17.60;3.50
44843;DHT22;31884;52.538;13.820;2023-04-28T08:57:17;17.60;3.10
44843;DHT22;31884;52.538;13.820;2023-04-28T08:59:44;17.20;3.90
44843;DHT22;31884;52.538;13.820;2023-04-28T09:02:09;17.40;3.70
44843;DHT22;31884;52.538;13.820;2023-04-28T09:04:35;17.50;3.80
44843;DHT22;31884;52.538;13.820;2023-04-28T09:07:01;17.30;3.50
44843;DHT22;31884;52.538;13.820;2023-04-28T09:09:28;17.10;4.40
44843;DHT22;31884;52.538;13.820;2023-04-28T09:12:02;17.10;4.00
44843;DHT22;31884;52.538;13.820;2023-04-28T09:14:30;17.20;4.40
44843;DHT22;31884;52.538;13.820;2023-04-28T09:16:57;17.10;4.10
44843;DHT22;31884;52.538;13.820;2023-04-28T09:19:23;16.60;4.70
44843;DHT22;31884;52.538;13.820;2023-04-28T09:21:52;16.30;5.30
44843;DHT22;31884;52.538;13.820;2023-04-28T09:24:31;16.20;5.80
44843;DHT22;31884;52.538;13.820;2023-04-28T09:26:58;16.30;6.40
44843;DHT22;31884;52.538;13.820;2023-04-28T09:29:24;16.70;5.30
44843;DHT22;31884;52.538;13.820;2023-04-28T09:31:50;16.80;5.10
44843;DHT22;31884;52.538;13.820;2023-04-28T09:34:15;17.00;4.90
44843;DHT22;31884;52.538;13.820;2023-04-28T09:36:41;17.00;4.20
44843;DHT22;31884;52.538;13.820;2023-04-28T09:39:07;17.30;4.20
44843;DHT22;31884;52.538;13.820;2023-04-28T09:41:42;17.20;4.20
44843;DHT22;31884;52.538;13.820;2023-04-28T09:44:15;17.40;4.10
44843;DHT22;31884;52.538;13.820;2023-04-28T09:46:42;17.40;3.70
44843;DHT22;31884;52.538;13.820;2023-04-28T09:49:09;17.60;4.00
44843;DHT22;31884;52.538;13.820;2023-04-28T09:51:35;17.70;3.70
44843;DHT22;31884;52.538;13.820;2023-04-28T09:54:01;17.60;3.90
44843;DHT22;31884;52.538;13.820;2023-04-28T09:56:27;17.10;4.40
44843;DHT22;31884;52.538;13.820;2023-04-28T09:58:56;17.30;4.60
44843;DHT22;31884;52.538;13.820;2023-04-28T10:01:24;17.20;4.30
44843;DHT22;31884;52.538;13.820;2023-04-28T10:03:52;16.90;5.00
44843;DHT22;31884;52.538;13.820;2023-04-28T10:06:18;16.70;4.80
44843;DHT22;31884;52.538;13.820;2023-04-28T10:08:44;16.60;5.50
44843;DHT22;31884;52.538;13.820;2023-04-28T10:11:13;16.50;5.20
44843;DHT22;31884;52.538;13.820;2023-04-28T10:13:41;16.50;5.40
44843;DHT22;31884;52.538;13.820;2023-04-28T10:16:07;16.30;5.90
44843;DHT22;31884;52.538;13.820;2023-04-28T10:18:33;16.30;6.10
44843;DHT22;31884;52.538;13.820;2023-04-28T10:21:00;16.30;6.00
44843;DHT22;31884;52.538;13.820;2023-04-28T10:27:01;16.60;6.10
44843;DHT22;31884;52.538;13.820;2023-04-28T10:29:24;16.80;6.20
44843;DHT22;31884;52.538;13.820;2023-04-28T10:32:16;17.00;6.10
44843;DHT22;31884;52.538;13.820;2023-04-28T10:34:42;16.80;5.90
44843;DHT22;31884;52.538;13.820;2023-04-28T10:37:07;17.00;5.60
44843;DHT22;31884;52.538;13.820;2023-04-28T10:39:33;17.20;5.30
44843;DHT22;31884;52.538;13.820;2023-04-28T10:41:59;17.00;6.40
44843;DHT22;31884;52.538;13.820;2023-04-28T10:47:13;16.50;6.30
44843;DHT22;31884;52.538;13.820;2023-04-28T10:50:06;16.50;7.10
44843;DHT22;31884;52.538;13.820;2023-04-28T10:55:29;17.00;6.20
44843;DHT22;31884;52.538;13.820;2023-04-28T11:00:49;16.90;6.30
44843;DHT22;31884;52.538;13.820;2023-04-28T11:06:21;16.90;6.80
44843;DHT22;31884;52.538;13.820;2023-04-28T11:08:50;16.90;6.50
44843;DHT22;31884;52.538;13.820;2023-04-28T11:11:17;17.00;6.40
44843;DHT22;31884;52.538;13.820;2023-04-28T11:13:44;17.00;6.70
44843;DHT22;31884;52.538;13.820;2023-04-28T11:16:14;17.20;6.00
44843;DHT22;31884;52.538;13.820;2023-04-28T11:18:59;17.30;6.00
44843;DHT22;31884;52.538;13.820;2023-04-28T11:21:28;17.20;5.90
44843;DHT22;31884;52.538;13.820;2023-04-28T11:23:54;17.00;6.40
44843;DHT22;31884;52.538;13.820;2023-04-28T11:26:21;16.90;7.50
44843;DHT22;31884;52.538;13.820;2023-04-28T11:31:15;16.70;7.00
44843;DHT22;31884;52.538;13.820;2023-04-28T11:33:58;16.60;6.90
44843;DHT22;31884;52.538;13.820;2023-04-28T11:36:27;16.70;7.40
44843;DHT22;31884;52.538;13.820;2023-04-28T11:38:53;16.90;7.20
44843;DHT22;31884;52.538;13.820;2023-04-28T11:41:20;16.90;7.10
44843;DHT22;31884;52.538;13.820;2023-04-28T11:43:46;16.80;7.20
44843;DHT22;31884;52.538;13.820;2023-04-28T11:46:16;17.00;7.20
44843;DHT22;31884;52.538;13.820;2023-04-28T11:48:42;17.00;7.50
44843;DHT22;31884;52.538;13.820;2023-04-28T11:51:08;17.00;7.80
44843;DHT22;31884;52.538;13.820;2023-04-28T11:53:43;17.00;7.40
44843;DHT22;31884;52.538;13.820;2023-04-28T11:56:10;16.90;8.10
44843;DHT22;31884;52.538;13.820;2023-04-28T11:58:38;17.00;7.70
44843;DHT22;31884;52.538;13.820;2023-04-28T12:01:12;17.40;8.00
44843;DHT22;31884;52.538;13.820;2023-04-28T12:03:46;17.40;7.60
44843;DHT22;31884;52.538;13.820;2023-04-28T12:06:16;17.10;7.90
44843;DHT22;31884;52.538;13.820;2023-04-28T12:08:43;16.90;7.80
44843;DHT22;31884;52.538;13.820;2023-04-28T12:11:12;17.10;7.80
44843;DHT22;31884;52.538;13.820;2023-04-28T12:13:39;17.40;7.90
44843;DHT22;31884;52.538;13.820;2023-04-28T12:16:06;17.40;7.40
44843;DHT22;31884;52.538;13.820;2023-04-28T12:18:35;17.40;8.00
44843;DHT22;31884;52.538;13.820;2023-04-28T12:21:01;17.50;7.70
44843;DHT22;31884;52.538;13.820;2023-04-28T12:23:31;17.60;7.70
44843;DHT22;31884;52.538;13.820;2023-04-28T12:25:57;17.50;7.40
44843;DHT22;31884;52.538;13.820;2023-04-28T12:28:34;17.50;8.00
44843;DHT22;31884;52.538;13.820;2023-04-28T12:31:04;17.30;7.60
44843;DHT22;31884;52.538;13.820;2023-04-28T12:33:31;17.30;7.90
44843;DHT22;31884;52.538;13.820;2023-04-28T12:36:01;17.20;7.90
44843;DHT22;31884;52.538;13.820;2023-04-28T12:38:27;17.50;8.00
44843;DHT22;31884;52.538;13.820;2023-04-28T12:40:53;17.70;7.70
44843;DHT22;31884;52.538;13.820;2023-04-28T12:43:19;17.80;7.10
44843;DHT22;31884;52.538;13.820;2023-04-28T12:45:48;17.90;6.90
44843;DHT22;31884;52.538;13.820;2023-04-28T12:48:13;17.50;7.50
44843;DHT22;31884;52.538;13.820;2023-04-28T12:50:39;17.50;7.50
44843;DHT22;31884;52.538;13.820;2023-04-28T12:53:04;17.30;7.90
44843;DHT22;31884;52.538;13.820;2023-04-28T12:55:30;17.30;7.90
44843;DHT22;31884;52.538;13.820;2023-04-28T12:57:56;17.30;7.80
44843;DHT22;31884;52.538;13.820;2023-04-28T13:00:21;17.50;7.70
44843;DHT22;31884;52.538;13.820;2023-04-28T13:02:49;17.40;7.90
44843;DHT22;31884;52.538;13.820;2023-04-28T13:05:15;17.40;7.40
44843;DHT22;31884;52.538;13.820;2023-04-28T13:07:42;17.30;7.90
44843;DHT22;31884;52.538;13.820;2023-04-28T13:10:10;17.40;7.90
44843;DHT22;31884;52.538;13.820;2023-04-28T13:12:37;17.50;8.00
44843;DHT22;31884;52.538;13.820;2023-04-28T13:15:04;17.30;8.00
44843;DHT22;31884;52.538;13.820;2023-04-28T13:17:30;17.20;8.30
44843;DHT22;31884;52.538;13.820;2023-04-28T13:19:55;17.30;8.40
44843;DHT22;31884;52.538;13.820;2023-04-28T13:22:21;17.40;8.30
44843;DHT22;31884;52.538;13.820;2023-04-28T13:24:47;17.40;8.10
44843;DHT22;31884;52.538;13.820;2023-04-28T13:27:13;17.50;8.10
44843;DHT22;31884;52.538;13.820;2023-04-28T13:29:38;17.80;8.20
44843;DHT22;31884;52.538;13.820;2023-04-28T13:32:05;17.50;8.20
44843;DHT22;31884;52.538;13.820;2023-04-28T13:34:30;17.30;8.20
44843;DHT22;31884;52.538;13.820;2023-04-28T13:36:56;17.30;8.50
44843;DHT22;31884;52.538;13.820;2023-04-28T13:39:22;17.40;8.50
44843;DHT22;31884;52.538;13.820;2023-04-28T13:41:48;17.50;8.30
44843;DHT22;31884;52.538;13.820;2023-04-28T13:44:15;17.60;8.10
44843;DHT22;31884;52.538;13.820;2023-04-28T13:46:42;17.60;8.20
44843;DHT22;31884;52.538;13.820;2023-04-28T13:49:11;17.60;8.30
44843;DHT22;31884;52.538;13.820;2023-04-28T13:51:37;17.50;8.80
44843;DHT22;31884;52.538;13.820;2023-04-28T13:54:03;17.50;8.50
44843;DHT22;31884;52.538;13.820;2023-04-28T13:56:30;17.60;8.50
44843;DHT22;31884;52.538;13.820;2023-04-28T13:58:56;17.50;8.50
44843;DHT22;31884;52.538;13.820;2023-04-28T14:01:22;17.40;9.20
44843;DHT22;31884;52.538;13.820;2023-04-28T14:03:47;17.40;8.90
44843;DHT22;31884;52.538;13.820;2023-04-28T14:06:14;17.30;9.50
44843;DHT22;31884;52.538;13.820;2023-04-28T14:08:40;17.30;9.50
44843;DHT22;31884;52.538;13.820;2023-04-28T14:11:05;17.40;10.80
44843;DHT22;31884;52.538;13.820;2023-04-28T14:13:31;17.30;10.00
44843;DHT22;31884;52.538;13.820;2023-04-28T14:15:57;17.10;10.20
44843;DHT22;31884;52.538;13.820;2023-04-28T14:18:23;16.90;11.00
44843;DHT22;31884;52.538;13.820;2023-04-28T14:20:48;16.70;11.10
44843;DHT22;31884;52.538;13.820;2023-04-28T14:23:14;16.70;11.20
44843;DHT22;31884;52.538;13.820;2023-04-28T14:25:41;16.80;12.10
44843;DHT22;31884;52.538;13.820;2023-04-28T14:28:09;16.80;12.30
44843;DHT22;31884;52.538;13.820;2023-04-28T14:30:34;16.70;12.40
44843;DHT22;31884;52.538;13.820;2023-04-28T14:33:00;16.80;12.40
44843;DHT22;31884;52.538;13.820;2023-04-28T14:35:26;16.80;12.10
44843;DHT22;31884;52.538;13.820;2023-04-28T14:37:52;16.70;12.30
44843;DHT22;31884;52.538;13.820;2023-04-28T14:40:18;16.70;12.40
44843;DHT22;31884;52.538;13.820;2023-04-28T14:42:44;16.50;13.20
44843;DHT22;31884;52.538;13.820;2023-04-28T14:45:10;16.40;13.00
44843;DHT22;31884;52.538;13.820;2023-04-28T14:47:38;16.40;13.30
44843;DHT22;31884;52.538;13.820;2023-04-28T14:50:04;16.40;13.70
44843;DHT22;31884;52.538;13.820;2023-04-28T14:52:31;16.40;13.10
44843;DHT22;31884;52.538;13.820;2023-04-28T14:54:59;16.40;13.50
44843;DHT22;31884;52.538;13.820;2023-04-28T14:57:26;16.30;13.80
44843;DHT22;31884;52.538;13.820;2023-04-28T14:59:52;16.30;13.20
44843;DHT22;31884;52.538;13.820;2023-04-28T15:02:20;16.40;13.20
44843;DHT22;31884;52.538;13.820;2023-04-28T15:04:46;16.40;13.90
44843;DHT22;31884;52.538;13.820;2023-04-28T15:07:13;16.40;13.80
44843;DHT22;31884;52.538;13.820;2023-04-28T15:09:39;16.30;14.30
44843;DHT22;31884;52.538;13.820;2023-04-28T15:12:04;16.30;14.50
44843;DHT22;31884;52.538;13.820;2023-04-28T15:14:31;16.20;14.10
44843;DHT22;31884;52.538;13.820;2023-04-28T15:16:57;16.20;14.00
44843;DHT22;31884;52.538;13.820;2023-04-28T15:19:24;16.30;14.30
44843;DHT22;31884;52.538;13.820;2023-04-28T15:21:50;16.30;14.70
44843;DHT22;31884;52.538;13.820;2023-04-28T15:24:18;16.20;14.90
44843;DHT22;31884;52.538;13.820;2023-04-28T15:26:45;16.10;15.70
44843;DHT22;31884;52.538;13.820;2023-04-28T15:29:11;16.10;15.30
44843;DHT22;31884;52.538;13.820;2023-04-28T15:31:37;16.10;16.50
44843;DHT22;31884;52.538;13.820;2023-04-28T15:34:04;16.00;15.60
44843;DHT22;31884;52.538;13.820;2023-04-28T15:36:30;16.10;15.80
44843;DHT22;31884;52.538;13.820;2023-04-28T15:38:56;16.00;16.00
44843;DHT22;31884;52.538;13.820;2023-04-28T15:41:22;16.00;16.50